Date,TemperatureHighF,TemperatureAvgF,TemperatureLowF,DewpointHighF,DewpointAvgF,DewpointLowF,HumidityHigh,HumidityAvg,HumidityLow,PressureMaxIn,PressureMinIn,WindSpeedMaxMPH,WindSpeedAvgMPH,GustSpeedMaxMPH,PrecipitationSumIn
2013-2-1,56,44,37,42,38,32,90,79,58,29.74,29.41,4,1,13,0.08
2013-2-2,51,38,30,35,30,25,84,72,51,30.22,29.75,4,2,11,0.01
2013-2-3,48,43,32,45,39,27,92,87,81,30.17,29.75,4,2,14,0.05
2013-2-4,50,44,34,44,38,30,89,80,71,29.84,29.54,9,5,26,0.25
2013-2-5,45,39,34,38,34,29,90,81,67,29.54,29.23,9,6,27,0.22
2013-2-6,47,42,37,38,35,27,92,77,58,30.15,29.28,7,4,15,10.50
2013-2-7,42,37,33,36,32,28,89,82,72,30.16,29.99,3,1,9,0.01
2013-2-8,49,41,35,41,35,31,90,81,66,30.18,30.07,3,2,11,0.01
2013-2-9,40,38,36,37,35,32,92,89,83,30.17,29.79,3,1,8,0.14
2013-2-10,39,38,35,36,34,30,92,87,81,29.78,29.27,5,3,14,0.14
2013-2-11,40,36,35,30,27,24,79,70,62,29.87,29.33,4,2,11,0.01
2013-2-12,40,35,29,30,26,23,79,68,58,30.10,29.87,4,1,9,0.00
2013-2-13,40,35,32,38,29,23,90,78,64,30.10,29.70,8,5,19,0.40
2013-2-14,58,45,39,50,40,36,93,84,65,29.94,29.67,5,2,16,0.26
2013-2-15,55,44,35,48,39,31,90,83,64,30.16,29.94,4,2,11,0.00
2013-2-16,50,41,33,40,35,30,92,79,66,30.19,30.13,3,1,10,0.00
2013-2-17,51,41,34,38,32,28,87,71,49,30.15,30.05,5,2,14,0.00
2013-2-18,50,40,34,34,31,28,80,71,53,30.13,30.07,6,3,14,0.00
2013-2-19,57,38,27,38,30,22,87,76,48,30.12,30.05,2,0,5,0.00
2013-2-20,40,36,29,35,28,23,86,76,63,30.28,30.12,5,3,14,0.00
2013-2-21,43,35,32,33,22,19,87,60,45,30.29,29.61,6,3,14,0.00
2013-2-22,38,34,32,26,22,20,67,60,55,30.26,30.21,3,1,9,0.00
2013-2-23,40,35,31,33,28,24,82,75,68,30.31,30.21,4,0,8,0.01
2013-2-24,44,36,31,32,28,24,79,72,61,30.42,30.32,3,1,11,0.00
2013-2-25,44,39,30,35,31,24,80,73,65,30.53,30.42,3,1,10,0.00
2013-2-26,44,40,38,35,33,30,78,74,68,30.66,30.53,2,1,11,0.00
2013-2-27,56,38,27,38,30,22,87,72,47,30.66,30.56,2,0,7,0.00
2013-2-28,57,39,26,39,30,21,87,73,43,30.58,30.45,3,0,8,0.00